Time;durP1;ratioP1;P1;durP2;ratioP2;P2;SDS_P1;SDS_P2;PMS_P1;PMS_P2;Temp;Humidity;BMP_temperature;BMP_pressure;BME280_temperature;BME280_humidity;BME280_pressure;Samples;Min_cycle;Max_cycle;Signal;HPM_P1;HPM_P2
2023/07/25 00:01:14;;;;;;;24.52;8.45;;;;;;;;;;4945177;28;20047;-64
2023/07/25 00:03:41;;;;;;;18.42;6.93;;;;;;;;;;4961931;28;20547;-63
2023/07/25 00:06:08;;;;;;;42.13;8.85;;;;;;;;;;4948721;28;20046;-64
2023/07/25 00:08:35;;;;;;;31.80;7.65;;;;;;;;;;4965618;28;20485;-63
2023/07/25 00:11:01;;;;;;;34.95;9.30;;;;;;;;;;4965492;28;20050;-64
2023/07/25 00:13:28;;;;;;;40.30;9.32;;;;;;;;;;4962761;28;20090;-68
2023/07/25 00:15:54;;;;;;;22.42;6.88;;;;;;;;;;4963067;28;20461;-64
2023/07/25 00:18:21;;;;;;;29.08;7.50;;;;;;;;;;4963888;28;20074;-63
2023/07/25 00:20:48;;;;;;;28.13;8.43;;;;;;;;;;4971133;28;20038;-64
2023/07/25 00:23:14;;;;;;;30.95;7.93;;;;;;;;;;4971062;28;20043;-64
2023/07/25 00:25:41;;;;;;;77.18;11.23;;;;;;;;;;4957427;28;20083;-65
2023/07/25 00:28:08;;;;;;;44.65;9.18;;;;;;;;;;4956418;29;20473;-65
2023/07/25 00:30:35;;;;;;;27.75;8.48;;;;;;;;;;4966883;28;20496;-65
2023/07/25 00:33:02;;;;;;;34.33;7.97;;;;;;;;;;4946448;28;20039;-64
2023/07/25 00:35:29;;;;;;;38.08;9.13;;;;;;;;;;4971103;28;20145;-67
2023/07/25 00:37:55;;;;;;;39.03;8.60;;;;;;;;;;4948599;28;20131;-64
2023/07/25 00:40:22;;;;;;;33.13;8.70;;;;;;;;;;4968004;28;20047;-64
2023/07/25 00:42:55;;;;;;;33.65;8.32;;;;;;;;;;4966532;28;20057;-64
2023/07/25 00:45:22;;;;;;;;;;;;;;;;;;4950150;28;20378;-64
2023/07/25 00:47:49;;;;;;;43.05;8.43;;;;;;;;;;4954939;28;20028;-64
2023/07/25 00:50:15;;;;;;;35.88;9.07;;;;;;;;;;4949422;28;20043;-65
2023/07/25 00:52:43;;;;;;;91.18;11.95;;;;;;;;;;4949933;28;20490;-63
2023/07/25 00:55:10;;;;;;;29.30;8.57;;;;;;;;;;4967540;28;20409;-64
2023/07/25 00:57:36;;;;;;;39.22;8.68;;;;;;;;;;4958199;28;20051;-64
2023/07/25 01:00:04;;;;;;;27.70;8.05;;;;;;;;;;4954858;28;20050;-64
2023/07/25 01:02:30;;;;;;;28.45;7.65;;;;;;;;;;4949516;28;20102;-64
2023/07/25 01:04:58;;;;;;;38.17;9.65;;;;;;;;;;4963703;28;20055;-66
2023/07/25 01:07:24;;;;;;;33.03;8.38;;;;;;;;;;4955491;28;20047;-65
2023/07/25 01:09:51;;;;;;;38.47;9.25;;;;;;;;;;4964753;28;20119;-65
2023/07/25 01:12:18;;;;;;;26.20;8.27;;;;;;;;;;4964857;28;20043;-64
2023/07/25 01:14:45;;;;;;;27.83;8.27;;;;;;;;;;4967351;28;20062;-66
2023/07/25 01:17:12;;;;;;;40.42;9.50;;;;;;;;;;4966476;28;20031;-66
2023/07/25 01:19:40;;;;;;;87.75;12.25;;;;;;;;;;4957862;28;20702;-64
2023/07/25 01:22:11;;;;;;;23.88;7.72;;;;;;;;;;4969774;28;20058;-64
2023/07/25 01:24:40;;;;;;;28.15;8.70;;;;;;;;;;4953991;28;20059;-63
2023/07/25 01:27:07;;;;;;;25.20;7.63;;;;;;;;;;4954569;28;20054;-64
2023/07/25 01:29:34;;;;;;;38.80;9.27;;;;;;;;;;4968432;28;20512;-64
2023/07/25 01:32:01;;;;;;;32.97;8.75;;;;;;;;;;4968061;28;20054;-64
2023/07/25 01:34:28;;;;;;;34.08;8.80;;;;;;;;;;4962542;28;20496;-64
2023/07/25 01:36:55;;;;;;;32.75;7.80;;;;;;;;;;4966990;28;20051;-63
2023/07/25 01:39:21;;;;;;;29.92;8.00;;;;;;;;;;4954166;28;20102;-64
2023/07/25 01:41:48;;;;;;;41.25;8.57;;;;;;;;;;4965578;28;20047;-65
2023/07/25 01:44:14;;;;;;;35.75;8.38;;;;;;;;;;4956577;28;20047;-64
2023/07/25 01:46:41;;;;;;;77.97;12.13;;;;;;;;;;4946895;28;20081;-64
2023/07/25 01:49:11;;;;;;;30.30;9.07;;;;;;;;;;4961176;28;20059;-64
2023/07/25 01:51:38;;;;;;;34.78;8.70;;;;;;;;;;4949615;28;20051;-63
2023/07/25 01:54:06;;;;;;;28.77;8.70;;;;;;;;;;4966487;28;20047;-64
2023/07/25 01:56:32;;;;;;;29.60;8.50;;;;;;;;;;4954649;28;20039;-66
2023/07/25 01:58:59;;;;;;;37.60;8.95;;;;;;;;;;4947980;28;20449;-65
2023/07/25 02:07:32;;;;;;;52.72;10.23;;;;;;;;;;559740;26;20326;-74
2023/07/25 02:09:59;;;;;;;28.20;8.20;;;;;;;;;;4984197;28;20047;-74
2023/07/25 02:12:26;;;;;;;34.33;8.88;;;;;;;;;;4993787;28;20042;-74
2023/07/25 02:14:52;;;;;;;25.85;7.95;;;;;;;;;;4975525;28;20046;-74
2023/07/25 02:17:19;;;;;;;30.00;8.88;;;;;;;;;;4967563;28;20452;-75
2023/07/25 02:19:46;;;;;;;84.28;12.80;;;;;;;;;;4968404;28;20515;-75
2023/07/25 02:22:13;;;;;;;29.63;8.82;;;;;;;;;;4977018;28;20069;-73
2023/07/25 02:24:40;;;;;;;27.63;8.07;;;;;;;;;;4969469;28;20065;-73
2023/07/25 02:27:07;;;;;;;28.23;7.80;;;;;;;;;;4968895;28;20042;-73
2023/07/25 02:29:33;;;;;;;25.80;8.77;;;;;;;;;;4975734;28;20129;-79
2023/07/25 02:32:00;;;;;;;42.47;10.18;;;;;;;;;;4975002;28;20611;-75
2023/07/25 02:34:27;;;;;;;38.38;8.38;;;;;;;;;;4994297;28;20125;-74
2023/07/25 02:36:53;;;;;;;26.42;8.13;;;;;;;;;;4988399;28;20070;-73
2023/07/25 02:39:20;;;;;;;25.90;8.55;;;;;;;;;;4989403;28;20042;-73
2023/07/25 02:41:47;;;;;;;43.28;9.20;;;;;;;;;;4966529;28;20050;-75
2023/07/25 02:44:14;;;;;;;30.27;9.05;;;;;;;;;;4993228;28;20117;-73
2023/07/25 02:46:41;;;;;;;94.35;13.02;;;;;;;;;;4973925;28;20062;-75
2023/07/25 02:49:07;;;;;;;34.20;8.88;;;;;;;;;;4964483;28;20390;-74
2023/07/25 02:51:34;;;;;;;23.10;8.63;;;;;;;;;;4970880;28;20046;-75
2023/07/25 02:54:01;;;;;;;31.38;8.77;;;;;;;;;;4992625;28;20050;-75
2023/07/25 02:56:28;;;;;;;32.15;9.05;;;;;;;;;;4992825;28;20117;-74
2023/07/25 02:58:55;;;;;;;51.88;10.68;;;;;;;;;;4967182;28;20125;-76
2023/07/25 03:01:22;;;;;;;18.92;7.70;;;;;;;;;;4983309;28;20057;-74
2023/07/25 03:03:49;;;;;;;40.28;9.75;;;;;;;;;;4992442;28;20140;-74
2023/07/25 03:06:15;;;;;;;25.65;8.40;;;;;;;;;;4992676;28;20039;-73
2023/07/25 03:08:42;;;;;;;34.50;9.00;;;;;;;;;;4969795;28;20050;-73
2023/07/25 03:11:09;;;;;;;39.28;9.65;;;;;;;;;;4975050;28;20468;-74
2023/07/25 03:13:35;;;;;;;38.47;9.93;;;;;;;;;;4992952;28;20125;-73
2023/07/25 03:16:02;;;;;;;26.95;9.43;;;;;;;;;;4992566;28;20042;-73
2023/07/25 03:18:29;;;;;;;47.05;9.93;;;;;;;;;;4964646;28;20152;-73
2023/07/25 03:20:55;;;;;;;45.00;10.57;;;;;;;;;;4964735;28;20051;-72
2023/07/25 03:23:22;;;;;;;26.60;8.40;;;;;;;;;;4969533;28;20058;-72
2023/07/25 03:25:48;;;;;;;89.03;12.90;;;;;;;;;;4965593;28;20419;-75
2023/07/25 03:28:15;;;;;;;30.42;9.70;;;;;;;;;;4993485;28;20050;-72
2023/07/25 03:30:42;;;;;;;32.47;8.50;;;;;;;;;;4992078;28;20046;-73
2023/07/25 03:33:08;;;;;;;37.97;9.25;;;;;;;;;;4964382;28;20055;-72
2023/07/25 03:35:35;;;;;;;37.25;10.65;;;;;;;;;;4974789;28;20129;-73
2023/07/25 03:38:02;;;;;;;47.10;11.63;;;;;;;;;;4991307;28;20053;-82
2023/07/25 03:40:28;;;;;;;33.35;9.60;;;;;;;;;;4993301;28;20074;-74
2023/07/25 03:42:55;;;;;;;31.25;9.45;;;;;;;;;;4974765;28;20050;-74
2023/07/25 03:45:21;;;;;;;25.85;8.48;;;;;;;;;;4968087;28;20049;-73
2023/07/25 03:47:48;;;;;;;34.92;9.55;;;;;;;;;;4974108;28;20657;-74
2023/07/25 03:50:15;;;;;;;38.95;10.23;;;;;;;;;;4974707;28;20038;-72
2023/07/25 03:52:42;;;;;;;95.55;13.50;;;;;;;;;;4973450;28;20050;-74
2023/07/25 03:55:09;;;;;;;41.45;9.95;;;;;;;;;;4958506;28;20038;-74
2023/07/25 03:57:35;;;;;;;165.98;17.92;;;;;;;;;;4992117;28;20109;-73
2023/07/25 04:00:02;;;;;;;33.42;9.63;;;;;;;;;;4958193;28;20074;-73
2023/07/25 04:02:37;;;;;;;55.88;10.55;;;;;;;;;;4987684;28;20400;-73
2023/07/25 04:05:04;;;;;;;43.30;9.35;;;;;;;;;;4967324;28;20060;-74
2023/07/25 04:07:30;;;;;;;30.38;9.88;;;;;;;;;;4972962;28;20518;-74
2023/07/25 04:09:57;;;;;;;23.83;8.73;;;;;;;;;;4974261;28;20070;-75
2023/07/25 04:12:24;;;;;;;24.33;8.75;;;;;;;;;;4991599;28;20039;-74
2023/07/25 04:14:51;;;;;;;34.58;9.43;;;;;;;;;;4991733;28;20050;-73
2023/07/25 04:17:17;;;;;;;125.22;18.00;;;;;;;;;;4983517;28;20046;-75
2023/07/25 04:19:44;;;;;;;86.72;13.82;;;;;;;;;;4991570;28;20120;-73
2023/07/25 04:22:11;;;;;;;30.60;9.38;;;;;;;;;;4988690;28;20061;-72
2023/07/25 04:24:38;;;;;;;28.27;8.98;;;;;;;;;;4991270;28;20069;-72
2023/07/25 04:27:04;;;;;;;49.00;10.48;;;;;;;;;;4991380;28;20035;-74
2023/07/25 04:29:31;;;;;;;34.63;10.38;;;;;;;;;;4968308;28;20038;-73
2023/07/25 04:31:58;;;;;;;63.83;10.75;;;;;;;;;;4973859;28;20038;-74
2023/07/25 04:34:25;;;;;;;37.05;9.07;;;;;;;;;;4989996;28;20045;-77
2023/07/25 04:36:51;;;;;;;34.55;9.55;;;;;;;;;;4957615;28;20080;-74
2023/07/25 04:39:18;;;;;;;37.97;10.13;;;;;;;;;;4991480;28;20039;-71
2023/07/25 04:41:51;;;;;;;38.83;9.88;;;;;;;;;;4964567;28;20467;-71
2023/07/25 04:44:19;;;;;;;38.70;8.45;;;;;;;;;;4988400;28;20034;-65
2023/07/25 04:46:47;;;;;;;92.32;12.88;;;;;;;;;;4982263;28;20054;-66
2023/07/25 04:49:14;;;;;;;34.88;9.00;;;;;;;;;;4990691;28;20050;-65
2023/07/25 04:51:40;;;;;;;26.13;7.50;;;;;;;;;;4973382;28;20058;-69
2023/07/25 04:54:07;;;;;;;36.75;8.45;;;;;;;;;;4991413;28;20043;-64
2023/07/25 04:56:34;;;;;;;28.38;8.20;;;;;;;;;;4991068;28;20069;-65
2023/07/25 04:59:00;;;;;;;31.52;9.10;;;;;;;;;;4990825;28;20528;-67
2023/07/25 05:01:27;;;;;;;33.58;7.70;;;;;;;;;;4992165;28;20094;-65
2023/07/25 05:03:53;;;;;;;48.83;9.02;;;;;;;;;;4989618;28;20068;-65
2023/07/25 05:06:20;;;;;;;36.53;7.65;;;;;;;;;;4993036;28;21034;-66
2023/07/25 05:08:47;;;;;;;52.63;11.05;;;;;;;;;;4994544;28;20089;-68
2023/07/25 05:11:13;;;;;;;37.78;7.78;;;;;;;;;;4994863;28;20042;-65
2023/07/25 05:13:40;;;;;;;201.43;16.52;;;;;;;;;;4995124;28;20057;-77
2023/07/25 05:16:06;;;;;;;22.55;6.32;;;;;;;;;;4974857;28;20073;-67
2023/07/25 05:18:33;;;;;;;29.13;7.38;;;;;;;;;;4982154;28;20077;-64
2023/07/25 05:21:00;;;;;;;29.25;7.90;;;;;;;;;;4994100;28;20051;-68
2023/07/25 05:23:26;;;;;;;23.02;6.82;;;;;;;;;;4994696;28;20052;-67
2023/07/25 05:25:53;;;;;;;52.42;8.93;;;;;;;;;;4994466;28;20195;-68
2023/07/25 05:28:19;;;;;;;35.40;7.90;;;;;;;;;;4995505;28;20077;-65
2023/07/25 05:30:46;;;;;;;92.07;13.32;;;;;;;;;;4994106;28;20121;-64
2023/07/25 05:33:12;;;;;;;61.30;9.88;;;;;;;;;;4984199;28;20057;-63
2023/07/25 05:35:39;;;;;;;30.42;6.75;;;;;;;;;;4972855;28;20054;-63
2023/07/25 05:38:07;;;;;;;29.27;6.90;;;;;;;;;;4976699;28;20404;-63
2023/07/25 05:40:35;;;;;;;24.00;6.18;;;;;;;;;;4977820;28;20480;-70
2023/07/25 05:43:02;;;;;;;34.17;7.82;;;;;;;;;;4977353;28;20050;-62
2023/07/25 05:45:29;;;;;;;58.08;8.05;;;;;;;;;;4951178;28;20050;-64
2023/07/25 05:47:56;;;;;;;90.03;10.10;;;;;;;;;;4993445;28;20050;-62
2023/07/25 05:50:22;;;;;;;28.13;6.53;;;;;;;;;;4994034;28;20045;-65
2023/07/25 05:52:49;;;;;;;99.22;12.05;;;;;;;;;;4993878;28;20056;-69
2023/07/25 05:55:16;;;;;;;19.88;6.63;;;;;;;;;;4994848;28;20042;-62
2023/07/25 05:57:42;;;;;;;25.27;6.05;;;;;;;;;;4966995;28;20053;-63
2023/07/25 06:00:09;;;;;;;33.70;6.90;;;;;;;;;;4971581;28;20404;-62
2023/07/25 06:02:36;;;;;;;31.95;6.85;;;;;;;;;;4976462;28;20144;-62
2023/07/25 06:05:03;;;;;;;51.78;7.80;;;;;;;;;;4971985;28;20543;-64
2023/07/25 06:07:29;;;;;;;22.95;6.07;;;;;;;;;;4995159;28;20046;-65
2023/07/25 06:09:56;;;;;;;19.40;5.80;;;;;;;;;;4971532;28;20488;-62
2023/07/25 06:12:23;;;;;;;25.02;5.80;;;;;;;;;;4973648;28;20400;-62
2023/07/25 06:14:50;;;;;;;55.35;7.22;;;;;;;;;;4975314;28;20125;-63
2023/07/25 06:17:16;;;;;;;78.15;8.57;;;;;;;;;;4976538;28;20408;-64
2023/07/25 06:19:43;;;;;;;52.67;8.27;;;;;;;;;;4996662;28;20038;-63
2023/07/25 06:22:14;;;;;;;43.22;7.20;;;;;;;;;;4996684;28;20057;-65
2023/07/25 06:24:41;;;;;;;25.63;5.40;;;;;;;;;;4976386;28;20055;-65
2023/07/25 06:27:08;;;;;;;18.63;5.32;;;;;;;;;;4997282;28;20065;-61
2023/07/25 06:29:35;;;;;;;18.48;5.15;;;;;;;;;;4996798;28;20054;-63
2023/07/25 06:32:01;;;;;;;20.02;5.38;;;;;;;;;;4992137;28;20885;-63
2023/07/25 06:34:28;;;;;;;102.75;10.13;;;;;;;;;;5001089;28;20046;-62
2023/07/25 06:36:55;;;;;;;21.42;4.88;;;;;;;;;;5000437;28;20042;-62
2023/07/25 06:39:22;;;;;;;14.25;5.07;;;;;;;;;;4998408;28;20042;-63
2023/07/25 06:41:49;;;;;;;29.95;5.93;;;;;;;;;;4998298;28;20108;-64
2023/07/25 06:44:19;;;;;;;20.67;5.22;;;;;;;;;;4978792;28;20068;-63
2023/07/25 06:46:46;;;;;;;83.80;9.30;;;;;;;;;;4981865;28;20489;-64
2023/07/25 06:49:13;;;;;;;23.88;5.53;;;;;;;;;;4997486;28;20038;-62
2023/07/25 06:51:39;;;;;;;29.33;4.65;;;;;;;;;;4981615;28;20419;-63
2023/07/25 06:54:06;;;;;;;26.85;5.07;;;;;;;;;;4979320;28;20488;-62
2023/07/25 06:56:33;;;;;;;29.65;4.85;;;;;;;;;;4999135;28;20045;-64
2023/07/25 06:58:59;;;;;;;48.03;6.20;;;;;;;;;;4994622;28;20046;-63
2023/07/25 07:01:27;;;;;;;13.38;3.67;;;;;;;;;;4998666;28;20054;-63
2023/07/25 07:03:55;;;;;;;42.17;5.75;;;;;;;;;;4998984;28;20042;-64
2023/07/25 07:06:22;;;;;;;77.00;6.60;;;;;;;;;;4995955;28;20100;-64
2023/07/25 07:08:48;;;;;;;36.83;5.05;;;;;;;;;;4997468;28;20058;-63
2023/07/25 07:11:15;;;;;;;21.00;4.07;;;;;;;;;;4998249;28;20053;-64
2023/07/25 07:13:41;;;;;;;56.20;6.57;;;;;;;;;;4998657;28;20046;-63
2023/07/25 07:16:09;;;;;;;25.08;4.32;;;;;;;;;;4995848;28;20066;-63
2023/07/25 07:18:36;;;;;;;39.70;5.63;;;;;;;;;;4970594;28;20046;-63
2023/07/25 07:21:02;;;;;;;20.10;3.85;;;;;;;;;;4997261;28;20065;-63
2023/07/25 07:23:29;;;;;;;17.88;3.55;;;;;;;;;;4996954;28;20125;-65
2023/07/25 07:25:56;;;;;;;42.53;5.10;;;;;;;;;;4995623;28;20042;-63
2023/07/25 07:28:22;;;;;;;17.42;3.50;;;;;;;;;;4997563;28;20118;-63
2023/07/25 07:30:49;;;;;;;29.70;4.20;;;;;;;;;;4996908;28;20045;-63
2023/07/25 07:33:17;;;;;;;23.48;4.18;;;;;;;;;;4966465;28;20051;-63
2023/07/25 07:35:44;;;;;;;34.90;4.70;;;;;;;;;;4990268;28;20484;-63
2023/07/25 07:38:11;;;;;;;34.58;5.10;;;;;;;;;;4995460;28;20042;-63
2023/07/25 07:40:38;;;;;;;31.75;4.80;;;;;;;;;;4961631;28;20089;-64
2023/07/25 07:43:04;;;;;;;35.08;4.47;;;;;;;;;;4994184;28;20058;-63
2023/07/25 07:45:31;;;;;;;63.03;6.22;;;;;;;;;;4967630;28;20058;-64
2023/07/25 07:47:58;;;;;;;27.80;4.18;;;;;;;;;;4992771;28;20047;-63
2023/07/25 07:50:28;;;;;;;32.25;4.50;;;;;;;;;;4993250;28;20070;-63
2023/07/25 07:52:54;;;;;;;89.03;8.27;;;;;;;;;;4992537;28;20097;-63
2023/07/25 07:55:21;;;;;;;20.00;2.95;;;;;;;;;;4993114;28;20128;-63
2023/07/25 07:57:48;;;;;;;25.05;3.42;;;;;;;;;;4974626;28;20492;-64
2023/07/25 08:00:15;;;;;;;27.05;8.05;;;;;;;;;;4992194;28;20121;-63
2023/07/25 08:02:44;;;;;;;19.38;3.28;;;;;;;;;;4992473;28;20149;-63
2023/07/25 08:05:11;;;;;;;41.45;5.13;;;;;;;;;;4991548;28;20811;-63
2023/07/25 08:07:38;;;;;;;431.17;29.65;;;;;;;;;;4972633;28;20055;-63
2023/07/25 08:10:06;;;;;;;22.70;3.47;;;;;;;;;;4992169;28;20141;-63
2023/07/25 08:12:32;;;;;;;29.27;3.55;;;;;;;;;;4990094;28;20046;-64
2023/07/25 08:14:59;;;;;;;16.33;3.13;;;;;;;;;;4971479;28;20137;-64
2023/07/25 08:17:26;;;;;;;21.88;3.50;;;;;;;;;;4966897;28;20051;-64
2023/07/25 08:19:52;;;;;;;87.18;7.78;;;;;;;;;;4991584;28;20049;-63
2023/07/25 08:22:19;;;;;;;99.38;7.25;;;;;;;;;;4993179;28;20048;-63
2023/07/25 08:24:46;;;;;;;25.15;3.25;;;;;;;;;;4991950;28;20053;-64
2023/07/25 08:27:13;;;;;;;13.55;2.45;;;;;;;;;;4974049;28;20081;-64
2023/07/25 08:29:41;;;;;;;25.98;3.22;;;;;;;;;;4987482;28;20065;-65
2023/07/25 08:32:08;;;;;;;27.27;3.35;;;;;;;;;;4974461;28;20043;-70
2023/07/25 08:34:36;;;;;;;33.83;4.40;;;;;;;;;;4992675;28;20500;-63
2023/07/25 08:37:03;;;;;;;35.03;4.07;;;;;;;;;;4972244;28;20472;-63
2023/07/25 08:39:30;;;;;;;26.73;3.40;;;;;;;;;;4988443;28;20038;-64
2023/07/25 08:41:57;;;;;;;42.22;4.63;;;;;;;;;;4995653;28;20066;-63
2023/07/25 08:44:25;;;;;;;44.05;4.43;;;;;;;;;;4995450;28;20066;-63
2023/07/25 08:46:52;;;;;;;77.28;6.80;;;;;;;;;;4970392;28;20101;-68
2023/07/25 08:49:28;;;;;;;24.52;3.33;;;;;;;;;;4978095;28;20150;-65
2023/07/25 08:51:55;;;;;;;36.05;4.10;;;;;;;;;;4995035;28;20892;-65
2023/07/25 08:54:24;;;;;;;36.25;4.38;;;;;;;;;;4995349;28;20049;-63
2023/07/25 08:56:51;;;;;;;21.77;3.10;;;;;;;;;;4995148;28;20053;-64
2023/07/25 08:59:18;;;;;;;42.65;4.47;;;;;;;;;;4987836;28;20077;-63
2023/07/25 09:01:45;;;;;;;43.30;4.70;;;;;;;;;;4967466;28;20050;-65
2023/07/25 09:04:12;;;;;;;34.58;3.67;;;;;;;;;;4995553;28;20041;-66
2023/07/25 09:06:39;;;;;;;37.25;3.97;;;;;;;;;;4995580;28;20388;-64
2023/07/25 09:09:06;;;;;;;35.00;3.95;;;;;;;;;;4994542;28;20120;-63
2023/07/25 09:11:33;;;;;;;26.27;3.63;;;;;;;;;;4986537;28;20042;-63
2023/07/25 09:14:01;;;;;;;121.85;9.57;;;;;;;;;;4994261;28;20053;-63
2023/07/25 09:16:29;;;;;;;57.67;5.38;;;;;;;;;;4995622;28;20415;-64
2023/07/25 09:18:56;;;;;;;19.05;2.75;;;;;;;;;;4977228;28;20165;-64
2023/07/25 09:21:23;;;;;;;29.45;3.25;;;;;;;;;;4969190;28;20525;-64
2023/07/25 09:23:57;;;;;;;27.55;3.53;;;;;;;;;;4994396;28;20048;-63
2023/07/25 09:26:25;;;;;;;27.15;3.33;;;;;;;;;;4975697;28;20054;-63
2023/07/25 09:28:53;;;;;;;69.63;6.82;;;;;;;;;;4965262;28;20051;-66
2023/07/25 09:31:25;;;;;;;30.20;3.67;;;;;;;;;;4995565;28;20046;-63
2023/07/25 09:33:53;;;;;;;21.15;3.05;;;;;;;;;;4994200;28;20444;-64
2023/07/25 09:36:19;;;;;;;24.67;3.38;;;;;;;;;;4969265;28;20121;-63
2023/07/25 09:38:55;;;;;;;32.28;3.50;;;;;;;;;;4994459;28;20145;-63
2023/07/25 09:41:22;;;;;;;40.78;4.00;;;;;;;;;;4994400;28;20038;-63
2023/07/25 09:43:49;;;;;;;69.97;6.32;;;;;;;;;;4976895;28;20407;-65
2023/07/25 09:46:16;;;;;;;20.95;2.72;;;;;;;;;;4995299;28;20515;-63
2023/07/25 09:48:43;;;;;;;19.52;2.88;;;;;;;;;;4975793;28;20539;-64
2023/07/25 09:51:11;;;;;;;36.05;4.22;;;;;;;;;;4969122;28;20050;-63
2023/07/25 09:53:40;;;;;;;42.45;4.72;;;;;;;;;;4976490;28;20483;-63
2023/07/25 09:56:08;;;;;;;33.20;3.47;;;;;;;;;;4968710;28;20484;-64
2023/07/25 09:58:34;;;;;;;25.95;3.38;;;;;;;;;;4994744;28;20070;-63
2023/07/25 10:01:09;;;;;;;27.95;3.33;;;;;;;;;;4994446;28;20125;-63
2023/07/25 10:03:36;;;;;;;17.45;2.92;;;;;;;;;;4993731;28;20070;-62
2023/07/25 10:06:04;;;;;;;19.60;2.70;;;;;;;;;;4984265;28;20364;-63
2023/07/25 10:08:31;;;;;;;48.78;5.10;;;;;;;;;;4975572;28;20054;-63
2023/07/25 10:10:58;;;;;;;77.95;7.10;;;;;;;;;;4992464;28;20054;-63
2023/07/25 10:13:24;;;;;;;34.50;4.18;;;;;;;;;;4966172;28;20043;-63
2023/07/25 10:15:51;;;;;;;33.53;3.65;;;;;;;;;;4993942;28;20050;-64
2023/07/25 10:18:23;;;;;;;22.50;2.97;;;;;;;;;;4993751;28;20491;-63
2023/07/25 10:20:50;;;;;;;27.67;3.03;;;;;;;;;;4993564;28;20097;-63
2023/07/25 10:23:17;;;;;;;44.03;4.68;;;;;;;;;;4993214;28;20046;-63
2023/07/25 10:25:44;;;;;;;69.47;6.35;;;;;;;;;;4990147;28;20042;-64
2023/07/25 10:28:11;;;;;;;40.63;4.30;;;;;;;;;;4993013;28;20038;-65
2023/07/25 10:30:45;;;;;;;36.97;4.47;;;;;;;;;;4992884;28;20052;-65
2023/07/25 10:33:12;;;;;;;19.92;2.63;;;;;;;;;;4972481;28;20097;-63
2023/07/25 10:35:40;;;;;;;15.27;2.15;;;;;;;;;;4960384;28;20492;-65
2023/07/25 10:38:08;;;;;;;47.03;4.47;;;;;;;;;;4989606;28;20058;-65
2023/07/25 10:40:55;;;;;;;38.35;4.22;;;;;;;;;;4990805;28;20038;-63
2023/07/25 10:43:26;;;;;;;34.75;3.75;;;;;;;;;;4993715;28;20056;-64
2023/07/25 10:45:54;;;;;;;23.50;3.08;;;;;;;;;;4991690;28;20062;-63
2023/07/25 10:48:27;;;;;;;25.70;3.33;;;;;;;;;;4990847;28;20130;-64
2023/07/25 10:50:54;;;;;;;53.15;5.07;;;;;;;;;;4959365;28;20496;-63
2023/07/25 10:53:24;;;;;;;35.78;3.88;;;;;;;;;;4975072;28;20490;-63
2023/07/25 10:56:11;;;;;;;60.28;5.45;;;;;;;;;;4992762;28;20057;-65
2023/07/25 10:58:39;;;;;;;33.53;3.65;;;;;;;;;;4993977;28;20134;-63
2023/07/25 11:01:06;;;;;;;25.75;3.45;;;;;;;;;;4993070;28;20491;-63
2023/07/25 11:03:34;;;;;;;26.35;3.40;;;;;;;;;;4979665;28;20554;-64
2023/07/25 11:06:07;;;;;;;52.40;4.60;;;;;;;;;;4983159;28;20042;-65
2023/07/25 11:08:33;;;;;;;;;;;;;;;;;;4975297;28;20534;-64
2023/07/25 11:11:04;;;;;;;46.25;4.72;;;;;;;;;;4991290;28;20028;-64
2023/07/25 11:13:32;;;;;;;42.97;4.68;;;;;;;;;;4973049;28;20125;-63
2023/07/25 11:16:05;;;;;;;29.33;3.45;;;;;;;;;;4967366;28;20066;-63
2023/07/25 11:18:33;;;;;;;96.50;7.55;;;;;;;;;;4992538;28;20057;-63
2023/07/25 11:21:01;;;;;;;26.70;3.65;;;;;;;;;;4974089;28;20038;-65
2023/07/25 11:23:28;;;;;;;42.60;4.22;;;;;;;;;;4992387;28;20073;-64
2023/07/25 11:25:55;;;;;;;62.45;5.53;;;;;;;;;;4974256;28;20050;-63
2023/07/25 11:28:22;;;;;;;24.33;2.90;;;;;;;;;;4992811;28;20114;-66
2023/07/25 11:30:48;;;;;;;24.25;3.45;;;;;;;;;;4992358;28;20121;-63
2023/07/25 11:33:15;;;;;;;32.70;3.40;;;;;;;;;;4988426;28;20042;-64
2023/07/25 11:35:42;;;;;;;41.53;5.55;;;;;;;;;;4963614;28;20050;-64
2023/07/25 11:38:10;;;;;;;44.22;4.32;;;;;;;;;;4988658;28;20105;-63
2023/07/25 11:40:37;;;;;;;42.33;4.63;;;;;;;;;;4966937;28;20055;-63
2023/07/25 11:43:13;;;;;;;58.13;10.00;;;;;;;;;;4989653;28;20042;-65
2023/07/25 11:45:39;;;;;;;40.97;4.72;;;;;;;;;;4971452;28;20055;-67
2023/07/25 11:48:08;;;;;;;32.00;3.85;;;;;;;;;;4987764;28;20403;-65
2023/07/25 11:50:50;;;;;;;41.95;6.95;;;;;;;;;;4971411;28;20133;-64
2023/07/25 11:53:19;;;;;;;44.15;6.75;;;;;;;;;;4988112;28;20078;-64
2023/07/25 11:55:46;;;;;;;67.75;8.50;;;;;;;;;;4957606;28;20055;-63
2023/07/25 11:58:20;;;;;;;27.25;5.57;;;;;;;;;;4988642;28;20552;-65
2023/07/25 12:00:54;;;;;;;58.75;6.53;;;;;;;;;;4989970;28;20049;-64
2023/07/25 12:03:22;;;;;;;34.28;5.88;;;;;;;;;;4972224;28;20046;-64
2023/07/25 12:05:56;;;;;;;42.70;6.35;;;;;;;;;;4980201;28;20072;-64
2023/07/25 12:08:32;;;;;;;47.60;8.93;;;;;;;;;;4985805;28;20050;-65
2023/07/25 12:11:01;;;;;;;74.90;9.38;;;;;;;;;;4989922;28;20723;-64
2023/07/25 12:13:28;;;;;;;36.92;6.10;;;;;;;;;;4990178;28;20046;-71
2023/07/25 12:15:56;;;;;;;36.42;9.32;;;;;;;;;;4975726;28;20050;-64
2023/07/25 12:18:29;;;;;;;37.17;5.90;;;;;;;;;;4975287;28;20112;-65
2023/07/25 12:21:00;;;;;;;48.67;7.18;;;;;;;;;;4976876;28;20554;-64
2023/07/25 12:23:32;;;;;;;46.13;9.00;;;;;;;;;;4976732;28;20062;-65
2023/07/25 12:26:00;;;;;;;117.78;12.25;;;;;;;;;;4994437;28;20046;-65
2023/07/25 12:28:47;;;;;;;29.40;7.80;;;;;;;;;;4975172;28;20512;-67
2023/07/25 12:31:13;;;;;;;54.47;6.90;;;;;;;;;;4994500;28;20064;-67
2023/07/25 12:33:43;;;;;;;55.15;8.25;;;;;;;;;;4993822;28;20551;-67
2023/07/25 12:36:11;;;;;;;38.85;4.70;;;;;;;;;;4973558;28;20057;-65
2023/07/25 12:38:38;;;;;;;35.10;4.53;;;;;;;;;;4992612;28;20074;-65
2023/07/25 12:41:05;;;;;;;54.00;7.50;;;;;;;;;;4993272;28;20038;-67
2023/07/25 12:43:32;;;;;;;43.63;6.80;;;;;;;;;;4993679;28;20035;-63
2023/07/25 12:46:01;;;;;;;37.47;7.45;;;;;;;;;;4976256;28;20039;-65
2023/07/25 12:48:28;;;;;;;120.35;12.13;;;;;;;;;;4971484;28;20125;-64
2023/07/25 12:50:55;;;;;;;42.67;4.50;;;;;;;;;;4975640;28;20050;-64
2023/07/25 12:53:22;;;;;;;41.83;4.25;;;;;;;;;;4994234;28;20058;-64
2023/07/25 12:55:49;;;;;;;92.10;11.07;;;;;;;;;;4975632;28;20107;-66
2023/07/25 12:58:15;;;;;;;85.28;9.07;;;;;;;;;;4994815;28;20046;-65
2023/07/25 13:00:42;;;;;;;22.63;5.63;;;;;;;;;;4994157;28;20050;-67
2023/07/25 13:03:11;;;;;;;40.40;6.43;;;;;;;;;;4973968;28;20049;-66
2023/07/25 13:05:39;;;;;;;39.90;6.28;;;;;;;;;;4972366;28;20050;-63
2023/07/25 13:08:08;;;;;;;83.45;8.80;;;;;;;;;;4992865;28;20054;-64
2023/07/25 13:10:40;;;;;;;36.88;5.65;;;;;;;;;;4992028;28;20057;-64
2023/07/25 13:13:07;;;;;;;34.08;6.82;;;;;;;;;;4993803;28;20096;-64
2023/07/25 13:15:34;;;;;;;30.35;5.45;;;;;;;;;;4990945;28;20038;-68
2023/07/25 13:18:03;;;;;;;39.92;6.63;;;;;;;;;;4993007;28;20093;-64
2023/07/25 13:20:33;;;;;;;34.28;6.07;;;;;;;;;;4992411;28;20053;-64
2023/07/25 13:22:59;;;;;;;91.60;11.25;;;;;;;;;;4992534;28;20049;-64
2023/07/25 13:25:27;;;;;;;28.08;5.15;;;;;;;;;;4993091;28;20400;-64
2023/07/25 13:27:54;;;;;;;28.50;5.65;;;;;;;;;;4992155;28;20041;-64
2023/07/25 13:30:20;;;;;;;79.63;8.85;;;;;;;;;;4993614;28;20042;-65
2023/07/25 13:32:47;;;;;;;44.78;7.82;;;;;;;;;;4974469;28;20043;-64
2023/07/25 13:35:15;;;;;;;47.88;6.70;;;;;;;;;;4989515;28;20050;-67
2023/07/25 13:37:42;;;;;;;39.63;5.30;;;;;;;;;;4986526;28;20054;-76
2023/07/25 13:40:09;;;;;;;42.30;7.10;;;;;;;;;;4992654;28;20035;-65
2023/07/25 13:42:36;;;;;;;57.80;6.38;;;;;;;;;;4977361;28;20137;-66
2023/07/25 13:45:03;;;;;;;42.55;6.57;;;;;;;;;;4975560;28;20082;-70
2023/07/25 13:47:30;;;;;;;48.10;8.25;;;;;;;;;;4992067;28;20365;-65
2023/07/25 13:50:02;;;;;;;95.90;10.65;;;;;;;;;;4990651;28;20069;-67
2023/07/25 13:52:29;;;;;;;176.65;17.35;;;;;;;;;;4993974;28;20124;-65
2023/07/25 13:54:56;;;;;;;44.97;5.28;;;;;;;;;;4973120;28;20046;-64
2023/07/25 13:57:23;;;;;;;62.72;9.00;;;;;;;;;;4990436;28;20437;-64
2023/07/25 13:59:57;;;;;;;106.80;11.75;;;;;;;;;;4990214;28;20480;-65
2023/07/25 14:02:24;;;;;;;65.55;9.13;;;;;;;;;;4992075;28;20073;-65
2023/07/25 14:04:51;;;;;;;85.32;11.00;;;;;;;;;;4974444;28;20038;-64
2023/07/25 14:07:18;;;;;;;29.88;4.60;;;;;;;;;;4992860;28;20411;-65
2023/07/25 14:09:45;;;;;;;46.63;5.30;;;;;;;;;;4975294;28;20120;-65
2023/07/25 14:12:12;;;;;;;39.72;6.72;;;;;;;;;;4992103;28;20043;-64
2023/07/25 14:14:39;;;;;;;51.00;9.80;;;;;;;;;;4974864;28;20034;-64
2023/07/25 14:17:06;;;;;;;68.32;8.82;;;;;;;;;;4990674;28;20497;-64
2023/07/25 14:19:33;;;;;;;37.00;4.00;;;;;;;;;;4959153;28;20050;-64
2023/07/25 14:22:00;;;;;;;100.65;8.00;;;;;;;;;;4975349;28;20415;-63
2023/07/25 14:24:27;;;;;;;37.10;4.30;;;;;;;;;;4992950;28;20057;-65
2023/07/25 14:26:54;;;;;;;55.65;5.20;;;;;;;;;;4992997;28;20455;-65
2023/07/25 14:29:21;;;;;;;64.43;6.05;;;;;;;;;;4992515;28;20061;-63
2023/07/25 14:31:47;;;;;;;69.68;7.22;;;;;;;;;;4975285;28;20495;-64
2023/07/25 14:34:14;;;;;;;38.05;6.72;;;;;;;;;;4992442;28;20121;-66
2023/07/25 14:36:41;;;;;;;27.63;3.38;;;;;;;;;;4973689;28;20114;-63